AirNav   Everest Fuels
 
 1584 users online  

59MO Hermann Area Hospital Heliport
Hermann, Missouri, USA

GOING TO HERMANN?


FAA INFORMATION EFFECTIVE 17 JUNE 2021

Location

FAA Identifier: 59MO
Lat/Long: 38-41-35.7100N 091-27-01.1300W
38-41.595167N 091-27.018833W
38.6932528,-91.4503139
(estimated)
Elevation: 610 ft. / 186 m (estimated)
Variation: 03E (1985)
Time zone: UTC -5 (UTC -6 during Standard Time)
Zip code: 65041

Heliport Operations

Heliport use: Private use, MEDICAL.
Activation date: 11/1974
Control tower: no
ARTCC: KANSAS CITY CENTER
FSS: SAINT LOUIS FLIGHT SERVICE STATION
Attendance: CONTINUOUS
Wind indicator: yes
Segmented circle: no
Lights: SS-SR

Nearby radio navigation aids

VOR radial/distance  VOR name  Freq  Var
FTZr265/22.4FORISTELL VORTAC110.8005E
VIHr014/34.5VICHY VOR/DME117.7006E
COUr101/36.6COLUMBIA VOR/DME110.2000E

Heliport Services

Airframe service: NONE
Powerplant service: NONE

Runway Information

Helipad H1

Dimensions: 40 x 40 ft. / 12 x 12 m
Surface: asphalt/concrete
Runway edge lights: FLD
Runway edge markings: RED LANDING PAD W/WHITE CROSS.
Latitude: 38-41.595167N
Longitude: 091-27.018833W
Elevation: 610.0 ft.
Traffic pattern: leftleft

Heliport Ownership and Management from official FAA records

Ownership: Privately-owned
Owner: HERMANN AREA DISTRICT HOSP.
PO BOX 470
HERMANN, MO 65041
Phone 314-486-2191
Manager: DAN MC KINNEY, ADMIN
PO BOX 470
HERMANN, MO 65041
Phone 314-486-2191
ADDITIONAL CONTACT - GREG STEPHAN - MAINTENANCE DIRECTOR 573-486-2191; MAINTENANCE@HADH.ORG

Additional Remarks

A52-H1 30' BLDG SE.
FOR CD CTC MIZZOU APCH AT 417-868-5620/5619.

Instrument Procedures

There are no published instrument procedures at 59MO.

Some nearby airports with instrument procedures:

KFYG - Washington Regional Airport (22 nm E)
KFTT - Elton Hensley Memorial Airport (27 nm W)
KUUV - Sullivan Regional Airport (31 nm SE)
KMYJ - Mexico Memorial Airport (33 nm NW)
KJEF - Jefferson City Memorial Airport (34 nm W)
 
Loc | Ops | Rwys | IFR | FBO | Links
Com | Nav | Svcs | Stats | Notes
Area around 59MO (Hermann Area Hospital Heliport)
 
Road maps at: MapQuest Bing Google
 
Aerial photo
No photo
 
Sectional chart

 
Airport distance calculator
Flying to Hermann Area Hospital Heliport? Find the distance to fly.

From to 59MO

Sunrise and sunset
Times for 21-Jun-2021
 Local
(UTC-5)
 Zulu
(UTC)
Morning civil twilight05:1010:10
Sunrise05:4210:42
Sunset20:3301:33
Evening civil twilight21:0502:05

Current date and time
Zulu (UTC)  21-Jun-2021 15:40:27
Local (UTC-5)  21-Jun-2021 10:40:27
 
METAR
KFYG 
22nm E 
211515Z AUTO 33008KT 10SM FEW023 SCT033 20/17 A2989 RMK AO2
KMYJ 
33nm NW 
211515Z AUTO 31008KT 10SM -RA SCT023 SCT120 16/15 A2993 RMK AO2
KJEF 
33nm W 
211453Z 33009KT 10SM SCT110 20/13 A2992 RMK AO2 SLP116 T02000133 50023
KCOU 
37nm W 
211454Z 35009KT 10SM FEW080 SCT110 19/14 A2991 RMK AO2 SLP120 T01890144 50017
KVIH 
37nm SW 
211453Z AUTO 01008KT 10SM FEW110 18/16 A2990 RMK AO2 RAE11 SLP116 P0000 60005 T01830161 50023
KSUS 
38nm E 
211454Z 28007KT 10SM FEW028 SCT120 20/15 A2989 RMK AO2 SLP114 T02000150 51044
TAF
KJEF 
33nm W 
211120Z 2112/2212 33009KT P6SM OVC100 FM211400 34010G18KT P6SM VCSH OVC060 FM212200 34009KT P6SM BKN250
KCOU 
37nm W 
211259Z 2113/2212 33017G24KT P6SM OVC100 FM211400 34017G24KT P6SM VCSH OVC060 FM212100 34010G19KT P6SM BKN100 FM212300 34009KT P6SM SCT250
KSUS 
38nm E 
211302Z 2113/2212 30012G18KT P6SM OVC020 FM211400 32012KT P6SM OVC040 FM211600 33012KT P6SM VCSH OVC060 FM212000 32009KT P6SM VCSH OVC070 FM212300 33009KT P6SM BKN100
NOTAMs
Click for the latest NOTAMs
NOTAMs are issued by the DoD/FAA and will open in a separate window not controlled by AirNav.

 

 
 

Would you like to see your business listed on this page?

 If your business provides an interesting product or service to pilots, flight crews, aircraft, or users of the Hermann Area Hospital Heliport, you should consider listing it here.  To start the listing process, click on the button below
 
Add a business
 

Other Pages about Hermann Area Hospital Heliport

Update a link
 
Copyright © AirNav, LLC. All rights reserved. Privacy Policy  Contact